Observations for LAMPEDUSA ISLAND, Italy (LICD)

LICD 092050Z 27008KT 9999 SCT040 17/11 Q1023
LICD 091950Z 29012KT 9999 SCT040 17/11 Q1023
LICD 091850Z 28015KT 9999 SCT040 18/11 Q1023
LICD 091750Z 28014KT 9999 FEW030 17/11 Q1023
LICD 091650Z 29016KT 9999 FEW030 17/12 Q1023
LICD 091550Z 29014KT 9999 FEW030 17/12 Q1023
LICD 091450Z 30013G25KT 9999 FEW020 17/12 Q1023 
LICD 091350Z 30016KT 9999 FEW020 SCT040 18/12 Q1023 
LICD 091250Z 30018KT 9999 FEW020 SCT040 18/12 Q1022 
LICD 091150Z 30018KT 9999 FEW020 SCT040 18/12 Q1023 
LICD 091050Z 29016KT 9999 BKN040 17/12 Q1024
LICD 090950Z 31014G29KT 9999 BKN040 17/12 Q1024 
LICD 090850Z 31018G29KT 9999 FEW020 SCT040 17/10 Q1024  
LICD 090750Z 31019G31KT 9999 FEW020 BKN040 16/10 Q1024  
LICD 090650Z 33016G29KT 9999 -RA FEW020 SCT040 16/11 Q1023  
LICD 090550Z 33021G31KT 9999 SCT030 16/11 Q1023 
LICD 090502Z 33022KT 9999 FEW030 16/10 Q1022